sensor_id;sensor_type;location;lat;lon;timestamp;P1;durP1;ratioP1;P2;durP2;ratioP2
68803;SDS011;55787;52.678;13.314;2023-08-06T00:00:29;8.68;;;3.75;;
68803;SDS011;55787;52.678;13.314;2023-08-06T00:02:56;11.23;;;3.78;;
68803;SDS011;55787;52.678;13.314;2023-08-06T00:05:23;11.18;;;3.70;;
68803;SDS011;55787;52.678;13.314;2023-08-06T00:07:50;9.47;;;3.80;;
68803;SDS011;55787;52.678;13.314;2023-08-06T00:10:17;11.23;;;4.15;;
68803;SDS011;55787;52.678;13.314;2023-08-06T00:12:45;10.13;;;4.18;;
68803;SDS011;55787;52.678;13.314;2023-08-06T00:15:11;10.82;;;4.75;;
68803;SDS011;55787;52.678;13.314;2023-08-06T00:17:38;8.85;;;3.72;;
68803;SDS011;55787;52.678;13.314;2023-08-06T00:20:05;10.67;;;4.10;;
68803;SDS011;55787;52.678;13.314;2023-08-06T00:22:33;10.10;;;3.90;;
68803;SDS011;55787;52.678;13.314;2023-08-06T00:25:01;10.45;;;3.83;;
68803;SDS011;55787;52.678;13.314;2023-08-06T00:27:28;10.27;;;4.10;;
68803;SDS011;55787;52.678;13.314;2023-08-06T00:29:55;10.32;;;3.88;;
68803;SDS011;55787;52.678;13.314;2023-08-06T00:32:22;11.27;;;4.37;;
68803;SDS011;55787;52.678;13.314;2023-08-06T00:34:49;11.07;;;4.45;;
68803;SDS011;55787;52.678;13.314;2023-08-06T00:37:16;11.80;;;4.05;;
68803;SDS011;55787;52.678;13.314;2023-08-06T00:39:43;10.65;;;4.07;;
68803;SDS011;55787;52.678;13.314;2023-08-06T00:42:10;10.30;;;4.18;;
68803;SDS011;55787;52.678;13.314;2023-08-06T00:44:38;13.50;;;4.43;;
68803;SDS011;55787;52.678;13.314;2023-08-06T00:47:06;10.88;;;4.07;;
68803;SDS011;55787;52.678;13.314;2023-08-06T00:49:35;12.75;;;4.68;;
68803;SDS011;55787;52.678;13.314;2023-08-06T00:52:02;10.52;;;4.57;;
68803;SDS011;55787;52.678;13.314;2023-08-06T00:54:31;10.18;;;4.43;;
68803;SDS011;55787;52.678;13.314;2023-08-06T00:56:59;13.60;;;4.40;;
68803;SDS011;55787;52.678;13.314;2023-08-06T00:59:28;13.13;;;4.72;;
68803;SDS011;55787;52.678;13.314;2023-08-06T01:01:56;14.13;;;4.85;;
68803;SDS011;55787;52.678;13.314;2023-08-06T01:04:23;12.45;;;4.70;;
68803;SDS011;55787;52.678;13.314;2023-08-06T01:12:37;13.95;;;5.53;;
68803;SDS011;55787;52.678;13.314;2023-08-06T01:15:14;13.65;;;5.43;;
68803;SDS011;55787;52.678;13.314;2023-08-06T01:17:45;11.68;;;4.93;;
68803;SDS011;55787;52.678;13.314;2023-08-06T01:20:12;12.77;;;5.20;;
68803;SDS011;55787;52.678;13.314;2023-08-06T01:22:39;12.27;;;5.80;;
68803;SDS011;55787;52.678;13.314;2023-08-06T01:25:06;12.82;;;5.78;;
68803;SDS011;55787;52.678;13.314;2023-08-06T01:27:38;12.40;;;5.57;;
68803;SDS011;55787;52.678;13.314;2023-08-06T01:30:14;11.13;;;5.25;;
68803;SDS011;55787;52.678;13.314;2023-08-06T01:32:44;12.93;;;5.75;;
68803;SDS011;55787;52.678;13.314;2023-08-06T01:35:14;13.67;;;5.70;;
68803;SDS011;55787;52.678;13.314;2023-08-06T01:37:42;13.45;;;6.35;;
68803;SDS011;55787;52.678;13.314;2023-08-06T01:40:10;14.10;;;5.97;;
68803;SDS011;55787;52.678;13.314;2023-08-06T01:42:40;12.65;;;5.97;;
68803;SDS011;55787;52.678;13.314;2023-08-06T01:45:07;12.75;;;6.28;;
68803;SDS011;55787;52.678;13.314;2023-08-06T01:47:34;12.40;;;5.20;;
68803;SDS011;55787;52.678;13.314;2023-08-06T01:50:01;11.77;;;5.90;;
68803;SDS011;55787;52.678;13.314;2023-08-06T01:52:28;13.95;;;6.20;;
68803;SDS011;55787;52.678;13.314;2023-08-06T01:54:55;13.52;;;6.47;;
68803;SDS011;55787;52.678;13.314;2023-08-06T01:57:22;12.43;;;6.10;;
68803;SDS011;55787;52.678;13.314;2023-08-06T01:59:48;11.80;;;5.67;;
68803;SDS011;55787;52.678;13.314;2023-08-06T02:02:15;12.23;;;5.70;;
68803;SDS011;55787;52.678;13.314;2023-08-06T02:04:42;12.80;;;6.32;;
68803;SDS011;55787;52.678;13.314;2023-08-06T02:07:09;14.30;;;6.47;;
68803;SDS011;55787;52.678;13.314;2023-08-06T02:09:36;13.82;;;6.80;;
68803;SDS011;55787;52.678;13.314;2023-08-06T02:12:03;11.97;;;5.70;;
68803;SDS011;55787;52.678;13.314;2023-08-06T02:14:30;14.00;;;5.90;;
68803;SDS011;55787;52.678;13.314;2023-08-06T02:16:59;14.43;;;6.47;;
68803;SDS011;55787;52.678;13.314;2023-08-06T02:19:29;13.35;;;6.50;;
68803;SDS011;55787;52.678;13.314;2023-08-06T02:21:56;14.68;;;6.55;;
68803;SDS011;55787;52.678;13.314;2023-08-06T02:24:22;13.50;;;6.47;;
68803;SDS011;55787;52.678;13.314;2023-08-06T02:26:49;13.27;;;6.22;;
68803;SDS011;55787;52.678;13.314;2023-08-06T02:29:17;14.60;;;6.60;;
68803;SDS011;55787;52.678;13.314;2023-08-06T02:31:44;14.52;;;6.15;;
68803;SDS011;55787;52.678;13.314;2023-08-06T02:34:11;12.23;;;6.13;;
68803;SDS011;55787;52.678;13.314;2023-08-06T02:36:38;13.00;;;6.13;;
68803;SDS011;55787;52.678;13.314;2023-08-06T02:39:04;14.43;;;6.43;;
68803;SDS011;55787;52.678;13.314;2023-08-06T02:41:31;13.00;;;6.35;;
68803;SDS011;55787;52.678;13.314;2023-08-06T02:43:58;13.45;;;6.40;;
68803;SDS011;55787;52.678;13.314;2023-08-06T02:46:25;12.95;;;6.43;;
68803;SDS011;55787;52.678;13.314;2023-08-06T02:48:51;13.67;;;6.70;;
68803;SDS011;55787;52.678;13.314;2023-08-06T02:51:18;13.43;;;6.55;;
68803;SDS011;55787;52.678;13.314;2023-08-06T02:53:45;14.90;;;6.40;;
68803;SDS011;55787;52.678;13.314;2023-08-06T02:56:11;13.38;;;6.00;;
68803;SDS011;55787;52.678;13.314;2023-08-06T02:58:38;13.93;;;6.70;;
68803;SDS011;55787;52.678;13.314;2023-08-06T03:01:05;14.57;;;6.97;;
68803;SDS011;55787;52.678;13.314;2023-08-06T03:03:33;14.20;;;6.93;;
68803;SDS011;55787;52.678;13.314;2023-08-06T03:06:00;15.82;;;6.95;;
68803;SDS011;55787;52.678;13.314;2023-08-06T03:08:27;13.30;;;6.40;;
68803;SDS011;55787;52.678;13.314;2023-08-06T03:10:54;13.15;;;6.53;;
68803;SDS011;55787;52.678;13.314;2023-08-06T03:13:21;15.27;;;6.60;;
68803;SDS011;55787;52.678;13.314;2023-08-06T03:15:51;13.70;;;6.65;;
68803;SDS011;55787;52.678;13.314;2023-08-06T03:18:20;15.20;;;6.57;;
68803;SDS011;55787;52.678;13.314;2023-08-06T03:20:47;14.50;;;6.50;;
68803;SDS011;55787;52.678;13.314;2023-08-06T03:23:14;13.93;;;6.72;;
68803;SDS011;55787;52.678;13.314;2023-08-06T03:25:41;15.07;;;7.30;;
68803;SDS011;55787;52.678;13.314;2023-08-06T03:28:09;13.85;;;6.53;;
68803;SDS011;55787;52.678;13.314;2023-08-06T03:30:35;13.88;;;6.93;;
68803;SDS011;55787;52.678;13.314;2023-08-06T03:33:02;14.20;;;6.55;;
68803;SDS011;55787;52.678;13.314;2023-08-06T03:35:29;14.05;;;6.55;;
68803;SDS011;55787;52.678;13.314;2023-08-06T03:37:56;16.57;;;6.90;;
68803;SDS011;55787;52.678;13.314;2023-08-06T03:40:23;14.50;;;7.15;;
68803;SDS011;55787;52.678;13.314;2023-08-06T03:42:49;13.05;;;6.38;;
68803;SDS011;55787;52.678;13.314;2023-08-06T03:45:16;13.65;;;6.47;;
68803;SDS011;55787;52.678;13.314;2023-08-06T03:47:43;15.55;;;6.50;;
68803;SDS011;55787;52.678;13.314;2023-08-06T03:50:09;13.80;;;6.57;;
68803;SDS011;55787;52.678;13.314;2023-08-06T03:52:36;13.65;;;6.43;;
68803;SDS011;55787;52.678;13.314;2023-08-06T03:55:03;15.75;;;6.68;;
68803;SDS011;55787;52.678;13.314;2023-08-06T03:57:30;14.43;;;6.95;;
68803;SDS011;55787;52.678;13.314;2023-08-06T03:59:57;14.80;;;7.22;;
68803;SDS011;55787;52.678;13.314;2023-08-06T04:02:24;15.33;;;6.90;;
68803;SDS011;55787;52.678;13.314;2023-08-06T04:04:50;15.10;;;7.10;;
68803;SDS011;55787;52.678;13.314;2023-08-06T04:07:19;14.30;;;6.90;;
68803;SDS011;55787;52.678;13.314;2023-08-06T04:09:57;14.25;;;6.90;;
68803;SDS011;55787;52.678;13.314;2023-08-06T04:12:25;14.43;;;7.07;;
68803;SDS011;55787;52.678;13.314;2023-08-06T04:14:52;15.20;;;6.97;;
68803;SDS011;55787;52.678;13.314;2023-08-06T04:17:20;13.80;;;6.32;;
68803;SDS011;55787;52.678;13.314;2023-08-06T04:19:50;14.77;;;7.22;;
68803;SDS011;55787;52.678;13.314;2023-08-06T04:22:19;14.77;;;7.05;;
68803;SDS011;55787;52.678;13.314;2023-08-06T04:24:47;14.07;;;6.95;;
68803;SDS011;55787;52.678;13.314;2023-08-06T04:27:14;16.53;;;6.87;;
68803;SDS011;55787;52.678;13.314;2023-08-06T04:29:41;15.90;;;7.30;;
68803;SDS011;55787;52.678;13.314;2023-08-06T04:32:09;14.07;;;7.10;;
68803;SDS011;55787;52.678;13.314;2023-08-06T04:34:37;16.95;;;7.45;;
68803;SDS011;55787;52.678;13.314;2023-08-06T04:37:04;15.75;;;7.13;;
68803;SDS011;55787;52.678;13.314;2023-08-06T04:39:31;14.13;;;6.80;;
68803;SDS011;55787;52.678;13.314;2023-08-06T04:41:58;14.50;;;7.25;;
68803;SDS011;55787;52.678;13.314;2023-08-06T04:44:24;15.23;;;7.35;;
68803;SDS011;55787;52.678;13.314;2023-08-06T04:46:51;14.85;;;7.15;;
68803;SDS011;55787;52.678;13.314;2023-08-06T04:49:19;16.02;;;7.07;;
68803;SDS011;55787;52.678;13.314;2023-08-06T04:51:47;15.70;;;7.37;;
68803;SDS011;55787;52.678;13.314;2023-08-06T04:54:13;16.27;;;7.43;;
68803;SDS011;55787;52.678;13.314;2023-08-06T04:56:41;15.07;;;7.13;;
68803;SDS011;55787;52.678;13.314;2023-08-06T04:59:07;16.40;;;7.40;;
68803;SDS011;55787;52.678;13.314;2023-08-06T05:01:34;15.10;;;7.40;;
68803;SDS011;55787;52.678;13.314;2023-08-06T05:04:01;15.47;;;7.53;;
68803;SDS011;55787;52.678;13.314;2023-08-06T05:06:28;16.73;;;7.88;;
68803;SDS011;55787;52.678;13.314;2023-08-06T05:08:54;15.77;;;7.40;;
68803;SDS011;55787;52.678;13.314;2023-08-06T05:11:21;17.35;;;8.02;;
68803;SDS011;55787;52.678;13.314;2023-08-06T05:13:48;15.52;;;7.60;;
68803;SDS011;55787;52.678;13.314;2023-08-06T05:16:14;14.90;;;6.77;;
68803;SDS011;55787;52.678;13.314;2023-08-06T05:18:41;13.93;;;6.57;;
68803;SDS011;55787;52.678;13.314;2023-08-06T05:21:08;14.43;;;7.03;;
68803;SDS011;55787;52.678;13.314;2023-08-06T05:23:35;14.50;;;6.82;;
68803;SDS011;55787;52.678;13.314;2023-08-06T05:26:01;14.52;;;6.63;;
68803;SDS011;55787;52.678;13.314;2023-08-06T05:28:28;13.73;;;7.00;;
68803;SDS011;55787;52.678;13.314;2023-08-06T05:30:55;16.20;;;8.05;;
68803;SDS011;55787;52.678;13.314;2023-08-06T05:33:21;16.83;;;7.50;;
68803;SDS011;55787;52.678;13.314;2023-08-06T05:35:49;15.35;;;7.28;;
68803;SDS011;55787;52.678;13.314;2023-08-06T05:38:16;17.80;;;8.15;;
68803;SDS011;55787;52.678;13.314;2023-08-06T05:40:43;15.70;;;7.27;;
68803;SDS011;55787;52.678;13.314;2023-08-06T05:43:10;15.35;;;7.43;;
68803;SDS011;55787;52.678;13.314;2023-08-06T05:45:37;16.55;;;7.35;;
68803;SDS011;55787;52.678;13.314;2023-08-06T05:48:04;16.85;;;7.85;;
68803;SDS011;55787;52.678;13.314;2023-08-06T05:50:30;14.30;;;6.88;;
68803;SDS011;55787;52.678;13.314;2023-08-06T05:52:57;15.10;;;7.07;;
68803;SDS011;55787;52.678;13.314;2023-08-06T05:55:27;14.43;;;7.03;;
68803;SDS011;55787;52.678;13.314;2023-08-06T05:57:54;15.88;;;7.30;;
68803;SDS011;55787;52.678;13.314;2023-08-06T06:00:21;15.50;;;6.88;;
68803;SDS011;55787;52.678;13.314;2023-08-06T06:02:48;15.27;;;6.90;;
68803;SDS011;55787;52.678;13.314;2023-08-06T06:05:15;14.03;;;6.97;;
68803;SDS011;55787;52.678;13.314;2023-08-06T06:07:41;14.77;;;6.70;;
68803;SDS011;55787;52.678;13.314;2023-08-06T06:10:08;14.10;;;6.88;;
68803;SDS011;55787;52.678;13.314;2023-08-06T06:12:35;14.55;;;6.90;;
68803;SDS011;55787;52.678;13.314;2023-08-06T06:15:02;14.88;;;6.50;;
68803;SDS011;55787;52.678;13.314;2023-08-06T06:17:29;14.10;;;6.20;;
68803;SDS011;55787;52.678;13.314;2023-08-06T06:19:56;13.38;;;6.35;;
68803;SDS011;55787;52.678;13.314;2023-08-06T06:22:23;12.55;;;6.18;;
68803;SDS011;55787;52.678;13.314;2023-08-06T06:24:50;13.35;;;6.13;;
68803;SDS011;55787;52.678;13.314;2023-08-06T06:27:16;14.38;;;6.85;;
68803;SDS011;55787;52.678;13.314;2023-08-06T06:29:43;15.30;;;6.77;;
68803;SDS011;55787;52.678;13.314;2023-08-06T06:32:10;13.80;;;6.10;;
68803;SDS011;55787;52.678;13.314;2023-08-06T06:34:36;14.63;;;6.97;;
68803;SDS011;55787;52.678;13.314;2023-08-06T06:37:03;13.15;;;6.13;;
68803;SDS011;55787;52.678;13.314;2023-08-06T06:39:30;13.52;;;6.43;;
68803;SDS011;55787;52.678;13.314;2023-08-06T06:41:57;14.33;;;6.20;;
68803;SDS011;55787;52.678;13.314;2023-08-06T06:44:24;14.38;;;6.47;;
68803;SDS011;55787;52.678;13.314;2023-08-06T06:46:50;12.68;;;6.13;;
68803;SDS011;55787;52.678;13.314;2023-08-06T06:49:17;12.80;;;6.03;;
68803;SDS011;55787;52.678;13.314;2023-08-06T06:51:44;12.40;;;5.68;;
68803;SDS011;55787;52.678;13.314;2023-08-06T06:54:10;13.23;;;6.33;;
68803;SDS011;55787;52.678;13.314;2023-08-06T06:56:38;12.60;;;5.88;;
68803;SDS011;55787;52.678;13.314;2023-08-06T06:59:04;11.63;;;5.78;;
68803;SDS011;55787;52.678;13.314;2023-08-06T07:01:31;13.80;;;6.05;;
68803;SDS011;55787;52.678;13.314;2023-08-06T07:03:58;12.35;;;5.72;;
68803;SDS011;55787;52.678;13.314;2023-08-06T07:06:25;12.63;;;5.63;;
68803;SDS011;55787;52.678;13.314;2023-08-06T07:08:52;12.48;;;5.85;;
68803;SDS011;55787;52.678;13.314;2023-08-06T07:11:18;12.65;;;5.85;;
68803;SDS011;55787;52.678;13.314;2023-08-06T07:13:45;12.43;;;5.65;;
68803;SDS011;55787;52.678;13.314;2023-08-06T07:16:12;11.32;;;5.43;;
68803;SDS011;55787;52.678;13.314;2023-08-06T07:18:39;12.83;;;5.83;;
68803;SDS011;55787;52.678;13.314;2023-08-06T07:21:05;11.75;;;5.70;;
68803;SDS011;55787;52.678;13.314;2023-08-06T07:23:32;11.77;;;5.75;;
68803;SDS011;55787;52.678;13.314;2023-08-06T07:25:59;11.73;;;5.97;;
68803;SDS011;55787;52.678;13.314;2023-08-06T07:28:25;12.82;;;6.10;;
68803;SDS011;55787;52.678;13.314;2023-08-06T07:30:52;15.20;;;6.23;;
68803;SDS011;55787;52.678;13.314;2023-08-06T07:33:19;12.85;;;6.43;;
68803;SDS011;55787;52.678;13.314;2023-08-06T07:35:46;13.52;;;6.90;;
68803;SDS011;55787;52.678;13.314;2023-08-06T07:38:12;13.60;;;6.07;;
68803;SDS011;55787;52.678;13.314;2023-08-06T07:40:40;12.70;;;6.07;;
68803;SDS011;55787;52.678;13.314;2023-08-06T07:43:07;12.57;;;5.90;;
68803;SDS011;55787;52.678;13.314;2023-08-06T07:45:36;12.73;;;6.00;;
68803;SDS011;55787;52.678;13.314;2023-08-06T07:48:04;12.77;;;6.35;;
68803;SDS011;55787;52.678;13.314;2023-08-06T07:50:31;13.18;;;6.45;;
68803;SDS011;55787;52.678;13.314;2023-08-06T07:52:58;13.32;;;6.30;;
68803;SDS011;55787;52.678;13.314;2023-08-06T07:55:25;12.20;;;6.40;;
68803;SDS011;55787;52.678;13.314;2023-08-06T07:57:51;12.95;;;6.30;;
68803;SDS011;55787;52.678;13.314;2023-08-06T08:00:18;12.48;;;6.20;;
68803;SDS011;55787;52.678;13.314;2023-08-06T08:02:46;12.73;;;6.32;;
68803;SDS011;55787;52.678;13.314;2023-08-06T08:05:13;12.48;;;6.40;;
68803;SDS011;55787;52.678;13.314;2023-08-06T08:07:40;12.70;;;6.17;;
68803;SDS011;55787;52.678;13.314;2023-08-06T08:10:07;12.95;;;6.68;;
68803;SDS011;55787;52.678;13.314;2023-08-06T08:12:34;12.68;;;6.00;;
68803;SDS011;55787;52.678;13.314;2023-08-06T08:15:01;13.88;;;6.15;;
68803;SDS011;55787;52.678;13.314;2023-08-06T08:17:27;11.80;;;6.47;;
68803;SDS011;55787;52.678;13.314;2023-08-06T08:19:54;13.17;;;6.43;;
68803;SDS011;55787;52.678;13.314;2023-08-06T08:22:21;12.95;;;6.13;;
68803;SDS011;55787;52.678;13.314;2023-08-06T08:24:47;12.32;;;6.28;;
68803;SDS011;55787;52.678;13.314;2023-08-06T08:27:14;12.10;;;6.40;;
68803;SDS011;55787;52.678;13.314;2023-08-06T08:29:41;12.90;;;6.25;;
68803;SDS011;55787;52.678;13.314;2023-08-06T08:32:07;13.20;;;6.73;;
68803;SDS011;55787;52.678;13.314;2023-08-06T08:34:34;13.05;;;6.40;;
68803;SDS011;55787;52.678;13.314;2023-08-06T08:37:01;13.35;;;6.93;;
68803;SDS011;55787;52.678;13.314;2023-08-06T08:39:27;13.15;;;6.20;;
68803;SDS011;55787;52.678;13.314;2023-08-06T08:41:54;14.38;;;6.63;;
68803;SDS011;55787;52.678;13.314;2023-08-06T08:44:21;13.40;;;6.30;;
68803;SDS011;55787;52.678;13.314;2023-08-06T08:46:48;12.32;;;6.50;;
68803;SDS011;55787;52.678;13.314;2023-08-06T08:49:15;12.45;;;6.15;;
68803;SDS011;55787;52.678;13.314;2023-08-06T08:51:43;13.43;;;6.40;;
68803;SDS011;55787;52.678;13.314;2023-08-06T08:54:11;12.05;;;5.78;;
68803;SDS011;55787;52.678;13.314;2023-08-06T08:56:39;12.33;;;6.17;;
68803;SDS011;55787;52.678;13.314;2023-08-06T08:59:06;13.15;;;6.38;;
68803;SDS011;55787;52.678;13.314;2023-08-06T09:01:33;12.45;;;5.95;;
68803;SDS011;55787;52.678;13.314;2023-08-06T09:04:01;12.13;;;6.35;;
68803;SDS011;55787;52.678;13.314;2023-08-06T09:06:29;12.80;;;6.70;;
68803;SDS011;55787;52.678;13.314;2023-08-06T09:09:04;11.70;;;6.03;;
68803;SDS011;55787;52.678;13.314;2023-08-06T09:11:33;12.20;;;6.00;;
68803;SDS011;55787;52.678;13.314;2023-08-06T09:14:07;13.13;;;6.70;;
68803;SDS011;55787;52.678;13.314;2023-08-06T09:16:35;13.32;;;6.40;;
68803;SDS011;55787;52.678;13.314;2023-08-06T09:19:08;13.30;;;6.35;;
68803;SDS011;55787;52.678;13.314;2023-08-06T09:21:39;12.00;;;6.23;;
68803;SDS011;55787;52.678;13.314;2023-08-06T09:24:07;12.73;;;6.60;;
68803;SDS011;55787;52.678;13.314;2023-08-06T09:26:38;12.57;;;6.35;;
68803;SDS011;55787;52.678;13.314;2023-08-06T09:29:07;11.93;;;5.95;;
68803;SDS011;55787;52.678;13.314;2023-08-06T09:34:14;11.60;;;5.87;;
68803;SDS011;55787;52.678;13.314;2023-08-06T09:36:43;13.18;;;6.68;;
68803;SDS011;55787;52.678;13.314;2023-08-06T09:39:13;12.82;;;6.80;;
68803;SDS011;55787;52.678;13.314;2023-08-06T09:41:44;13.25;;;6.28;;
68803;SDS011;55787;52.678;13.314;2023-08-06T09:44:21;12.73;;;6.20;;
68803;SDS011;55787;52.678;13.314;2023-08-06T09:46:56;13.63;;;6.83;;
68803;SDS011;55787;52.678;13.314;2023-08-06T09:51:59;12.70;;;6.15;;
68803;SDS011;55787;52.678;13.314;2023-08-06T09:54:26;12.55;;;6.57;;
68803;SDS011;55787;52.678;13.314;2023-08-06T09:56:54;12.20;;;6.30;;
68803;SDS011;55787;52.678;13.314;2023-08-06T09:59:24;12.33;;;6.33;;
68803;SDS011;55787;52.678;13.314;2023-08-06T10:01:51;15.80;;;6.25;;
68803;SDS011;55787;52.678;13.314;2023-08-06T10:04:21;12.93;;;6.60;;
68803;SDS011;55787;52.678;13.314;2023-08-06T10:06:51;11.50;;;5.78;;
68803;SDS011;55787;52.678;13.314;2023-08-06T10:09:19;11.82;;;5.53;;
68803;SDS011;55787;52.678;13.314;2023-08-06T10:11:51;11.87;;;6.13;;
68803;SDS011;55787;52.678;13.314;2023-08-06T10:14:27;10.68;;;4.72;;
68803;SDS011;55787;52.678;13.314;2023-08-06T10:16:58;10.35;;;4.82;;
68803;SDS011;55787;52.678;13.314;2023-08-06T10:19:26;10.68;;;5.22;;
68803;SDS011;55787;52.678;13.314;2023-08-06T10:22:12;10.60;;;5.70;;
68803;SDS011;55787;52.678;13.314;2023-08-06T10:27:32;11.02;;;5.25;;
68803;SDS011;55787;52.678;13.314;2023-08-06T10:32:53;12.45;;;5.78;;
68803;SDS011;55787;52.678;13.314;2023-08-06T10:35:54;11.80;;;6.10;;
68803;SDS011;55787;52.678;13.314;2023-08-06T10:38:18;10.70;;;5.43;;
68803;SDS011;55787;52.678;13.314;2023-08-06T10:43:28;11.77;;;5.13;;
68803;SDS011;55787;52.678;13.314;2023-08-06T10:45:55;9.93;;;3.90;;
68803;SDS011;55787;52.678;13.314;2023-08-06T10:50:59;10.63;;;4.50;;
68803;SDS011;55787;52.678;13.314;2023-08-06T10:53:27;10.38;;;5.35;;
68803;SDS011;55787;52.678;13.314;2023-08-06T10:55:57;10.52;;;5.07;;
68803;SDS011;55787;52.678;13.314;2023-08-06T10:58:24;11.70;;;5.47;;
68803;SDS011;55787;52.678;13.314;2023-08-06T11:00:51;11.18;;;5.13;;
68803;SDS011;55787;52.678;13.314;2023-08-06T11:03:18;10.93;;;5.10;;
68803;SDS011;55787;52.678;13.314;2023-08-06T11:05:48;10.40;;;5.10;;
68803;SDS011;55787;52.678;13.314;2023-08-06T11:08:25;10.30;;;4.72;;
68803;SDS011;55787;52.678;13.314;2023-08-06T11:10:56;9.40;;;4.70;;
68803;SDS011;55787;52.678;13.314;2023-08-06T11:13:38;10.88;;;5.18;;
68803;SDS011;55787;52.678;13.314;2023-08-06T11:16:20;11.33;;;5.20;;
68803;SDS011;55787;52.678;13.314;2023-08-06T11:18:49;13.00;;;5.13;;
68803;SDS011;55787;52.678;13.314;2023-08-06T11:21:20;12.45;;;6.03;;
68803;SDS011;55787;52.678;13.314;2023-08-06T11:23:47;11.73;;;5.50;;
68803;SDS011;55787;52.678;13.314;2023-08-06T11:26:21;11.48;;;5.90;;
68803;SDS011;55787;52.678;13.314;2023-08-06T11:28:49;11.40;;;5.60;;
68803;SDS011;55787;52.678;13.314;2023-08-06T11:31:22;11.82;;;5.15;;
68803;SDS011;55787;52.678;13.314;2023-08-06T11:33:51;10.27;;;4.90;;
68803;SDS011;55787;52.678;13.314;2023-08-06T11:36:31;11.98;;;4.95;;
68803;SDS011;55787;52.678;13.314;2023-08-06T11:39:00;10.43;;;4.93;;
68803;SDS011;55787;52.678;13.314;2023-08-06T11:41:30;10.97;;;5.17;;
68803;SDS011;55787;52.678;13.314;2023-08-06T11:43:57;11.70;;;5.32;;
68803;SDS011;55787;52.678;13.314;2023-08-06T11:46:24;12.20;;;5.70;;
68803;SDS011;55787;52.678;13.314;2023-08-06T11:48:52;10.25;;;4.55;;
68803;SDS011;55787;52.678;13.314;2023-08-06T11:51:24;11.23;;;5.18;;
68803;SDS011;55787;52.678;13.314;2023-08-06T11:53:58;10.57;;;4.83;;
68803;SDS011;55787;52.678;13.314;2023-08-06T11:56:25;11.05;;;5.05;;
68803;SDS011;55787;52.678;13.314;2023-08-06T11:58:54;10.98;;;5.30;;
68803;SDS011;55787;52.678;13.314;2023-08-06T12:01:21;11.75;;;5.43;;
68803;SDS011;55787;52.678;13.314;2023-08-06T12:03:48;12.13;;;5.43;;
68803;SDS011;55787;52.678;13.314;2023-08-06T12:06:15;11.80;;;5.60;;
68803;SDS011;55787;52.678;13.314;2023-08-06T12:08:41;12.07;;;5.53;;
68803;SDS011;55787;52.678;13.314;2023-08-06T12:11:08;11.35;;;5.63;;
68803;SDS011;55787;52.678;13.314;2023-08-06T12:13:35;12.23;;;5.68;;
68803;SDS011;55787;52.678;13.314;2023-08-06T12:16:02;12.20;;;5.30;;
68803;SDS011;55787;52.678;13.314;2023-08-06T12:18:29;10.17;;;4.63;;
68803;SDS011;55787;52.678;13.314;2023-08-06T12:20:55;10.43;;;4.97;;
68803;SDS011;55787;52.678;13.314;2023-08-06T12:23:22;10.50;;;4.80;;
68803;SDS011;55787;52.678;13.314;2023-08-06T12:25:49;10.13;;;4.78;;
68803;SDS011;55787;52.678;13.314;2023-08-06T12:28:15;9.88;;;4.60;;
68803;SDS011;55787;52.678;13.314;2023-08-06T12:30:42;10.47;;;4.80;;
68803;SDS011;55787;52.678;13.314;2023-08-06T12:33:10;10.65;;;4.63;;
68803;SDS011;55787;52.678;13.314;2023-08-06T12:35:37;9.88;;;4.68;;
68803;SDS011;55787;52.678;13.314;2023-08-06T12:38:04;11.70;;;5.10;;
68803;SDS011;55787;52.678;13.314;2023-08-06T12:40:32;13.32;;;4.65;;
68803;SDS011;55787;52.678;13.314;2023-08-06T12:43:04;10.40;;;4.30;;
68803;SDS011;55787;52.678;13.314;2023-08-06T12:45:31;11.48;;;5.22;;
68803;SDS011;55787;52.678;13.314;2023-08-06T12:47:58;9.40;;;4.20;;
68803;SDS011;55787;52.678;13.314;2023-08-06T12:50:25;10.20;;;4.40;;
68803;SDS011;55787;52.678;13.314;2023-08-06T12:52:51;10.30;;;4.32;;
68803;SDS011;55787;52.678;13.314;2023-08-06T12:55:18;10.83;;;4.50;;
68803;SDS011;55787;52.678;13.314;2023-08-06T12:57:45;9.57;;;4.05;;
68803;SDS011;55787;52.678;13.314;2023-08-06T13:00:24;11.00;;;4.22;;
68803;SDS011;55787;52.678;13.314;2023-08-06T13:02:51;9.80;;;3.88;;
68803;SDS011;55787;52.678;13.314;2023-08-06T13:05:18;9.60;;;3.83;;
68803;SDS011;55787;52.678;13.314;2023-08-06T13:07:46;9.80;;;4.47;;
68803;SDS011;55787;52.678;13.314;2023-08-06T13:10:12;9.80;;;4.07;;
68803;SDS011;55787;52.678;13.314;2023-08-06T13:12:39;9.98;;;4.13;;
68803;SDS011;55787;52.678;13.314;2023-08-06T13:15:06;9.70;;;3.97;;
68803;SDS011;55787;52.678;13.314;2023-08-06T13:17:33;8.85;;;3.70;;
68803;SDS011;55787;52.678;13.314;2023-08-06T13:20:00;8.87;;;3.67;;
68803;SDS011;55787;52.678;13.314;2023-08-06T13:22:27;9.88;;;3.70;;
68803;SDS011;55787;52.678;13.314;2023-08-06T13:24:54;8.32;;;3.10;;
68803;SDS011;55787;52.678;13.314;2023-08-06T13:27:20;9.40;;;3.30;;
68803;SDS011;55787;52.678;13.314;2023-08-06T13:29:47;8.05;;;3.22;;
68803;SDS011;55787;52.678;13.314;2023-08-06T13:32:14;8.43;;;3.37;;
68803;SDS011;55787;52.678;13.314;2023-08-06T13:34:40;8.57;;;2.83;;
68803;SDS011;55787;52.678;13.314;2023-08-06T13:37:07;9.07;;;3.33;;
68803;SDS011;55787;52.678;13.314;2023-08-06T13:39:34;7.60;;;2.75;;
68803;SDS011;55787;52.678;13.314;2023-08-06T13:42:01;9.07;;;2.90;;
68803;SDS011;55787;52.678;13.314;2023-08-06T13:44:27;7.77;;;2.80;;
68803;SDS011;55787;52.678;13.314;2023-08-06T13:46:55;9.05;;;3.17;;
68803;SDS011;55787;52.678;13.314;2023-08-06T13:49:22;8.63;;;2.78;;
68803;SDS011;55787;52.678;13.314;2023-08-06T13:51:49;7.90;;;2.90;;
68803;SDS011;55787;52.678;13.314;2023-08-06T13:54:15;7.90;;;2.78;;
68803;SDS011;55787;52.678;13.314;2023-08-06T13:56:43;7.03;;;2.43;;
68803;SDS011;55787;52.678;13.314;2023-08-06T13:59:09;8.18;;;2.72;;
68803;SDS011;55787;52.678;13.314;2023-08-06T14:01:39;7.88;;;2.70;;
68803;SDS011;55787;52.678;13.314;2023-08-06T14:04:17;7.53;;;2.53;;
68803;SDS011;55787;52.678;13.314;2023-08-06T14:06:44;8.23;;;2.47;;
68803;SDS011;55787;52.678;13.314;2023-08-06T14:09:11;8.43;;;2.70;;
68803;SDS011;55787;52.678;13.314;2023-08-06T14:11:40;7.88;;;2.38;;
68803;SDS011;55787;52.678;13.314;2023-08-06T14:14:07;8.00;;;2.72;;
68803;SDS011;55787;52.678;13.314;2023-08-06T14:16:34;8.07;;;2.63;;
68803;SDS011;55787;52.678;13.314;2023-08-06T14:19:00;7.50;;;2.40;;
68803;SDS011;55787;52.678;13.314;2023-08-06T14:21:27;7.53;;;2.73;;
68803;SDS011;55787;52.678;13.314;2023-08-06T14:23:54;6.88;;;2.55;;
68803;SDS011;55787;52.678;13.314;2023-08-06T14:26:21;7.25;;;2.38;;
68803;SDS011;55787;52.678;13.314;2023-08-06T14:28:48;8.48;;;2.78;;
68803;SDS011;55787;52.678;13.314;2023-08-06T14:31:14;6.93;;;2.50;;
68803;SDS011;55787;52.678;13.314;2023-08-06T14:33:41;6.83;;;2.00;;
68803;SDS011;55787;52.678;13.314;2023-08-06T14:36:08;7.70;;;2.40;;
68803;SDS011;55787;52.678;13.314;2023-08-06T14:38:34;6.70;;;2.00;;
68803;SDS011;55787;52.678;13.314;2023-08-06T14:41:15;6.28;;;1.85;;
68803;SDS011;55787;52.678;13.314;2023-08-06T14:43:42;7.00;;;2.00;;
68803;SDS011;55787;52.678;13.314;2023-08-06T14:46:08;7.17;;;1.97;;
68803;SDS011;55787;52.678;13.314;2023-08-06T14:48:35;7.20;;;2.40;;